createdAt,value
2022-08-12T00:00:11.832Z,100406.13
2022-08-12T00:02:57.697Z,100401.50
2022-08-12T00:06:04.293Z,100409.22
2022-08-12T00:08:52.245Z,100409.22
2022-08-12T00:11:39.099Z,100409.88
2022-08-12T00:14:25.099Z,100413.72
2022-08-12T00:17:11.274Z,100418.69
2022-08-12T00:19:56.900Z,100414.28
2022-08-12T00:22:43.923Z,100406.03
2022-08-12T00:26:00.386Z,100409.22
2022-08-12T00:28:35.617Z,100406.56
2022-08-12T00:31:21.385Z,100406.25
2022-08-12T00:34:07.270Z,100410.09
2022-08-12T00:36:53.105Z,100409.34
2022-08-12T00:39:40.679Z,100413.97
2022-08-12T00:42:11.947Z,100403.66
2022-08-12T00:44:44.271Z,100405.69
2022-08-12T00:47:24.018Z,100401.19
2022-08-12T00:49:56.096Z,100402.91
2022-08-12T00:52:25.247Z,100405.41
2022-08-12T00:54:57.952Z,100404.63
2022-08-12T00:57:28.926Z,100405.81
2022-08-12T00:59:58.766Z,100406.03
2022-08-12T01:02:29.575Z,100405.59
2022-08-12T01:05:17.494Z,100405.28
2022-08-12T01:08:04.955Z,100402.50
2022-08-12T01:10:57.550Z,100406.78
2022-08-12T01:13:26.628Z,100408.22
2022-08-12T01:15:57.255Z,100410.03
2022-08-12T01:18:29.137Z,100410.91
2022-08-12T01:21:11.915Z,100403.19
2022-08-12T01:23:50.256Z,100401.38
2022-08-12T01:26:23.424Z,100401.03
2022-08-12T01:28:57.059Z,100404.25
2022-08-12T01:31:29.321Z,100406.38
2022-08-12T01:34:04.245Z,100396.94
2022-08-12T01:36:41.163Z,100401.44
2022-08-12T01:39:09.754Z,100396.19
2022-08-12T01:41:45.220Z,100391.78
2022-08-12T01:44:21.829Z,100391.78
2022-08-12T01:46:58.627Z,100394.66
2022-08-12T01:49:45.082Z,100390.38
2022-08-12T01:52:36.020Z,100391.34
2022-08-12T01:55:07.044Z,100385.03
2022-08-12T01:57:58.770Z,100378.81
2022-08-12T02:00:55.429Z,100383.31
2022-08-12T02:03:59.821Z,100377.94
2022-08-12T02:06:51.032Z,100376.03
2022-08-12T02:09:47.543Z,100376.97
2022-08-12T02:12:27.730Z,100377.19
2022-08-12T02:15:13.170Z,100381.16
2022-08-12T02:17:57.056Z,100375.34
2022-08-12T02:20:51.236Z,100375.47
2022-08-12T02:23:25.560Z,100366.97
2022-08-12T02:25:57.039Z,100366.00
2022-08-12T02:28:26.080Z,100362.41
2022-08-12T02:30:56.738Z,100360.97
2022-08-12T02:33:25.847Z,100367.38
2022-08-12T02:35:55.540Z,100364.81
2022-08-12T02:38:27.069Z,100354.22
2022-08-12T02:40:56.994Z,100361.78
2022-08-12T02:43:37.939Z,100358.13
2022-08-12T02:46:14.071Z,100350.31
2022-08-12T02:48:49.059Z,100354.94
2022-08-12T02:51:20.554Z,100341.75
2022-08-12T02:54:04.994Z,100353.50
2022-08-12T02:56:40.865Z,100344.03
2022-08-12T02:59:12.156Z,100350.47
2022-08-12T03:01:48.570Z,100347.88
2022-08-12T03:04:26.902Z,100341.84
2022-08-12T03:07:10.588Z,100342.81
2022-08-12T03:10:03.411Z,100344.63
2022-08-12T03:12:43.638Z,100346.56
2022-08-12T03:15:17.698Z,100346.56
2022-08-12T03:18:24.741Z,100346.56
2022-08-12T03:20:45.978Z,100340.56
2022-08-12T03:23:21.551Z,100342.59
2022-08-12T03:25:58.964Z,100352.41
2022-08-12T03:28:44.844Z,100347.16
2022-08-12T03:31:13.253Z,100343.81
2022-08-12T03:33:48.186Z,100350.78
2022-08-12T03:36:32.086Z,100345.84
2022-08-12T03:42:06.198Z,100352.16
2022-08-12T03:44:58.828Z,100353.22
2022-08-12T03:47:52.134Z,100352.44
2022-08-12T03:50:39.369Z,100351.47
2022-08-12T03:53:27.092Z,100355.00
2022-08-12T03:56:13.328Z,100352.44
2022-08-12T03:59:04.196Z,100358.75
2022-08-12T04:01:33.477Z,100360.19
2022-08-12T04:04:10.625Z,100356.06
2022-08-12T04:06:44.940Z,100364.09
2022-08-12T04:09:15.846Z,100368.19
2022-08-12T04:12:03.527Z,100377.84
2022-08-12T04:14:34.950Z,100355.78
2022-08-12T04:17:04.762Z,100365.53
2022-08-12T04:19:32.924Z,100361.13
2022-08-12T04:22:03.470Z,100363.13
2022-08-12T04:24:34.968Z,100366.66
2022-08-12T04:27:06.310Z,100372.69
2022-08-12T04:30:31.011Z,100373.91
2022-08-12T04:32:24.024Z,100375.16
2022-08-12T04:34:52.756Z,100376.88
2022-08-12T04:37:20.952Z,100388.31
2022-08-12T04:39:50.041Z,100388.50
2022-08-12T04:42:18.634Z,100387.91
2022-08-12T04:44:48.479Z,100388.28
2022-08-12T04:47:18.030Z,100385.53
2022-08-12T04:49:48.171Z,100391.97
2022-08-12T04:52:16.892Z,100399.88
2022-08-12T04:54:45.794Z,100394.03
2022-08-12T04:57:13.963Z,100407.56
2022-08-12T04:59:48.503Z,100398.59
2022-08-12T05:02:22.084Z,100402.59
2022-08-12T05:04:52.765Z,100400.97
2022-08-12T05:07:24.254Z,100402.25
2022-08-12T05:10:00.650Z,100407.28
2022-08-12T05:12:36.632Z,100408.03
2022-08-12T05:15:19.098Z,100406.75
2022-08-12T05:18:00.102Z,100411.16
2022-08-12T05:20:30.979Z,100405.38
2022-08-12T05:23:12.934Z,100408.41
2022-08-12T05:25:43.388Z,100415.81
2022-08-12T05:28:13.151Z,100404.03
2022-08-12T05:30:43.629Z,100405.97
2022-08-12T05:33:33.231Z,100402.09
2022-08-12T05:36:01.353Z,100408.22
2022-08-12T05:38:46.836Z,100413.44
2022-08-12T05:41:20.562Z,100409.28
2022-08-12T05:43:51.117Z,100410.53
2022-08-12T05:46:20.093Z,100405.81
2022-08-12T05:48:51.272Z,100402.06
2022-08-12T05:51:19.487Z,100408.59
2022-08-12T05:53:48.382Z,100406.03
2022-08-12T05:56:24.693Z,100407.13
2022-08-12T05:58:54.607Z,100405.19
2022-08-12T06:02:11.807Z,100403.47
2022-08-12T06:04:14.786Z,100400.78
2022-08-12T06:06:43.299Z,100406.66
2022-08-12T06:09:12.263Z,100401.19
2022-08-12T06:11:53.984Z,100399.25
2022-08-12T06:14:31.760Z,100400.41
2022-08-12T06:16:59.979Z,100397.59
2022-08-12T06:20:27.000Z,100401.88
2022-08-12T06:22:17.933Z,100400.47
2022-08-12T06:24:46.605Z,100401.53
2022-08-12T06:27:19.213Z,100408.56
2022-08-12T06:30:08.454Z,100395.31
2022-08-12T06:32:40.175Z,100407.03
2022-08-12T06:35:26.915Z,100411.44
2022-08-12T06:38:06.185Z,100397.94
2022-08-12T06:40:52.007Z,100391.84
2022-08-12T06:43:21.351Z,100396.22
2022-08-12T06:45:49.554Z,100397.69
2022-08-12T06:48:17.773Z,100398.09
2022-08-12T06:50:49.286Z,100407.72
2022-08-12T06:53:17.425Z,100414.31
2022-08-12T06:55:58.528Z,100402.88
2022-08-12T06:58:27.043Z,100408.41
2022-08-12T07:03:27.888Z,100407.28
2022-08-12T07:06:00.863Z,100409.38
2022-08-12T07:08:30.010Z,100405.13
2022-08-12T07:11:00.320Z,100402.09
2022-08-12T07:13:36.846Z,100401.50
2022-08-12T07:16:26.808Z,100392.34
2022-08-12T07:18:58.179Z,100400.06
2022-08-12T07:22:00.354Z,100400.06
2022-08-12T07:24:19.097Z,100406.31
2022-08-12T07:26:47.217Z,100406.44
2022-08-12T07:29:16.493Z,100413.50
2022-08-12T07:31:44.700Z,100408.00
2022-08-12T07:34:12.833Z,100418.00
2022-08-12T07:36:42.394Z,100410.66
2022-08-12T07:39:10.796Z,100411.91
2022-08-12T07:41:39.100Z,100409.53
2022-08-12T07:44:09.388Z,100412.22
2022-08-12T07:46:40.432Z,100403.28
2022-08-12T07:49:11.185Z,100400.00
2022-08-12T07:51:40.130Z,100398.50
2022-08-12T07:54:12.374Z,100407.81
2022-08-12T07:56:43.290Z,100402.56
2022-08-12T07:59:11.704Z,100408.94
2022-08-12T08:01:41.235Z,100411.22
2022-08-12T08:04:27.069Z,100398.81
2022-08-12T08:06:55.642Z,100399.78
2022-08-12T08:09:25.505Z,100401.91
2022-08-12T08:12:19.142Z,100394.22
2022-08-12T08:14:50.197Z,100398.09
2022-08-12T08:17:18.850Z,100392.31
2022-08-12T08:20:03.750Z,100399.31
2022-08-12T08:22:41.984Z,100404.94
2022-08-12T08:25:35.750Z,100395.56
2022-08-12T08:28:07.724Z,100398.38
2022-08-12T08:30:38.332Z,100401.19
2022-08-12T08:33:23.031Z,100393.97
2022-08-12T08:35:54.418Z,100393.03
2022-08-12T08:38:31.772Z,100384.09
2022-08-12T08:42:16.294Z,100390.25
2022-08-12T08:44:11.089Z,100387.50
2022-08-12T08:46:39.406Z,100386.91
2022-08-12T08:49:08.182Z,100383.25
2022-08-12T08:51:36.586Z,100386.84
2022-08-12T08:54:06.875Z,100391.47
2022-08-12T08:56:43.940Z,100386.56
2022-08-12T08:59:12.523Z,100383.97
2022-08-12T09:01:40.759Z,100380.75
2022-08-12T09:05:09.071Z,100378.84
2022-08-12T09:07:14.963Z,100379.88
2022-08-12T09:10:02.208Z,100367.25
2022-08-12T09:13:02.610Z,100362.84
2022-08-12T09:15:36.428Z,100354.31
2022-08-12T09:20:55.101Z,100365.47
2022-08-12T09:26:11.666Z,100361.03
2022-08-12T09:28:41.961Z,100362.88
2022-08-12T09:31:54.165Z,100361.97
2022-08-12T09:34:25.445Z,100358.88
2022-08-12T09:37:01.077Z,100354.16
2022-08-12T09:40:00.827Z,100353.16
2022-08-12T09:42:43.434Z,100354.50
2022-08-12T09:46:05.304Z,100342.56
2022-08-12T09:48:20.023Z,100339.91
2022-08-12T09:50:52.030Z,100335.59
2022-08-12T09:53:35.854Z,100335.41
2022-08-12T09:57:00.421Z,100332.38
2022-08-12T09:59:00.169Z,100324.34
2022-08-12T10:01:35.572Z,100328.75
2022-08-12T10:04:20.761Z,100326.50
2022-08-12T10:06:54.834Z,100332.16
2022-08-12T10:09:56.835Z,100322.19
2022-08-12T10:12:33.059Z,100318.41
2022-08-12T10:15:02.272Z,100329.84
2022-08-12T10:17:32.049Z,100327.03
2022-08-12T10:20:01.713Z,100321.72
2022-08-12T10:22:40.458Z,100317.47
2022-08-12T10:26:18.346Z,100321.09
2022-08-12T10:28:33.278Z,100305.97
2022-08-12T10:31:05.233Z,100312.94
2022-08-12T10:33:55.040Z,100314.97
2022-08-12T10:36:39.864Z,100316.28
2022-08-12T10:40:01.309Z,100302.25
2022-08-12T10:42:29.012Z,100310.91
2022-08-12T10:45:01.022Z,100303.59
2022-08-12T10:48:19.871Z,100301.94
2022-08-12T10:50:33.901Z,100298.78
2022-08-12T10:53:11.600Z,100298.94
2022-08-12T10:55:55.507Z,100303.75
2022-08-12T10:58:30.756Z,100299.19
2022-08-12T11:01:49.850Z,100300.03
2022-08-12T11:04:35.806Z,100298.16
2022-08-12T11:07:06.338Z,100303.44
2022-08-12T11:09:54.314Z,100301.25
2022-08-12T11:12:55.451Z,100314.13
2022-08-12T11:15:19.011Z,100310.06
2022-08-12T11:17:53.990Z,100316.00
2022-08-12T11:20:24.353Z,100302.22
2022-08-12T11:22:59.960Z,100305.78
2022-08-12T11:25:56.335Z,100297.47
2022-08-12T11:28:34.105Z,100302.63
2022-08-12T11:31:03.755Z,100290.03
2022-08-12T11:34:06.569Z,100301.94
2022-08-12T11:36:21.925Z,100293.22
2022-08-12T11:38:52.331Z,100295.31
2022-08-12T11:41:31.477Z,100287.06
2022-08-12T11:44:36.084Z,100294.38
2022-08-12T11:46:54.086Z,100289.69
2022-08-12T11:49:31.975Z,100281.28
2022-08-12T11:52:27.940Z,100284.03
2022-08-12T11:54:54.916Z,100277.41
2022-08-12T11:58:27.936Z,100287.88
2022-08-12T12:03:01.019Z,100269.63
2022-08-12T12:05:39.513Z,100278.88
2022-08-12T12:08:38.546Z,100277.06
2022-08-12T12:10:59.672Z,100282.91
2022-08-12T12:14:08.298Z,100280.50
2022-08-12T12:16:16.076Z,100282.19
2022-08-12T12:18:45.390Z,100278.78
2022-08-12T12:21:13.548Z,100279.53
2022-08-12T12:23:46.965Z,100276.78
2022-08-12T12:26:35.691Z,100264.06
2022-08-12T12:29:07.830Z,100260.78
2022-08-12T12:32:11.945Z,100260.06
2022-08-12T12:34:40.362Z,100254.03
2022-08-12T12:38:04.617Z,100259.50
2022-08-12T12:40:17.036Z,100254.03
2022-08-12T12:42:57.796Z,100247.44
2022-08-12T12:45:28.647Z,100243.44
2022-08-12T12:48:02.761Z,100242.00
2022-08-12T12:50:35.321Z,100234.75
2022-08-12T12:54:06.637Z,100226.84
2022-08-12T12:56:01.874Z,100229.63
2022-08-12T12:58:31.387Z,100226.66
2022-08-12T13:01:04.692Z,100223.81
2022-08-12T13:03:49.114Z,100217.72
2022-08-12T13:06:19.097Z,100213.09
2022-08-12T13:08:49.378Z,100211.97
2022-08-12T13:11:21.194Z,100224.13
2022-08-12T13:14:06.760Z,100208.59
2022-08-12T13:16:43.786Z,100215.19
2022-08-12T13:19:12.258Z,100200.66
2022-08-12T13:22:06.357Z,100201.69
2022-08-12T13:24:34.457Z,100200.25
2022-08-12T13:27:02.714Z,100201.69
2022-08-12T13:29:33.574Z,100201.41
2022-08-12T13:32:19.506Z,100206.41
2022-08-12T13:34:53.442Z,100190.88
2022-08-12T13:37:43.985Z,100197.75
2022-08-12T13:40:21.269Z,100198.69
2022-08-12T13:42:57.980Z,100197.66
2022-08-12T13:45:29.026Z,100197.28
2022-08-12T13:48:00.388Z,100202.41
2022-08-12T13:50:32.875Z,100202.72
2022-08-12T13:53:06.111Z,100201.72
2022-08-12T13:56:01.329Z,100190.25
2022-08-12T13:58:32.985Z,100184.44
2022-08-12T14:01:06.448Z,100186.22
2022-08-12T14:03:50.455Z,100177.09
2022-08-12T14:06:20.404Z,100170.94
2022-08-12T14:08:49.794Z,100173.19
2022-08-12T14:11:19.412Z,100172.94
2022-08-12T14:14:06.218Z,100177.91
2022-08-12T14:16:48.323Z,100177.38
2022-08-12T14:19:24.490Z,100180.66
2022-08-12T14:22:00.949Z,100168.56
2022-08-12T14:24:35.592Z,100164.16
2022-08-12T14:27:08.853Z,100172.94
2022-08-12T14:30:04.803Z,100173.31
2022-08-12T14:32:36.047Z,100165.84
2022-08-12T14:35:08.994Z,100155.28
2022-08-12T14:37:57.662Z,100155.00
2022-08-12T14:41:37.103Z,100153.53
2022-08-12T14:44:58.878Z,100147.91
2022-08-12T14:47:07.547Z,100151.25
2022-08-12T14:50:41.537Z,100142.84
2022-08-12T14:53:15.412Z,100145.16
2022-08-12T14:58:04.580Z,100133.34
2022-08-12T15:00:53.418Z,100140.06
2022-08-12T15:03:57.006Z,100136.13
2022-08-12T15:06:39.798Z,100130.16
2022-08-12T15:09:06.987Z,100131.22
2022-08-12T15:11:54.943Z,100126.13
2022-08-12T15:14:27.413Z,100127.78
2022-08-12T15:17:00.086Z,100117.69
2022-08-12T15:20:33.220Z,100117.50
2022-08-12T15:22:35.939Z,100116.25
2022-08-12T15:25:07.482Z,100118.97
2022-08-12T15:28:05.449Z,100117.72
2022-08-12T15:30:33.970Z,100117.72
2022-08-12T15:33:12.391Z,100111.81
2022-08-12T15:35:52.103Z,100105.97
2022-08-12T15:38:24.851Z,100112.09
2022-08-12T15:40:56.478Z,100102.09
2022-08-12T15:43:51.658Z,100107.97
2022-08-12T15:46:18.690Z,100095.16
2022-08-12T15:48:53.768Z,100102.41
2022-08-12T15:51:59.324Z,100095.50
2022-08-12T15:54:30.639Z,100092.38
2022-08-12T15:57:05.620Z,100096.34
2022-08-12T16:00:00.444Z,100092.34
2022-08-12T16:02:26.656Z,100091.44
2022-08-12T16:04:55.704Z,100084.31
2022-08-12T16:07:29.941Z,100095.66
2022-08-12T16:10:07.008Z,100089.34
2022-08-12T16:12:43.140Z,100093.59
2022-08-12T16:15:13.180Z,100095.91
2022-08-12T16:18:15.621Z,100094.41
2022-08-12T16:20:34.970Z,100099.75
2022-08-12T16:23:26.689Z,100101.69
2022-08-12T16:26:02.718Z,100093.44
2022-08-12T16:28:32.962Z,100086.53
2022-08-12T16:31:01.828Z,100084.72
2022-08-12T16:33:59.696Z,100074.22
2022-08-12T16:36:27.813Z,100065.25
2022-08-12T16:38:56.026Z,100067.00
2022-08-12T16:41:25.705Z,100076.03
2022-08-12T16:43:56.569Z,100075.84
2022-08-12T16:46:31.967Z,100078.72
2022-08-12T16:49:09.350Z,100071.06
2022-08-12T16:51:47.023Z,100073.44
2022-08-12T16:54:17.065Z,100068.88
2022-08-12T16:56:55.388Z,100058.00
2022-08-12T16:59:31.100Z,100055.09
2022-08-12T17:02:31.668Z,100053.94
2022-08-12T17:05:05.186Z,100053.94
2022-08-12T17:07:43.284Z,100057.66
2022-08-12T17:10:18.535Z,100051.22
2022-08-12T17:13:09.922Z,100054.94
2022-08-12T17:15:57.097Z,100054.56
2022-08-12T17:18:42.902Z,100063.88
2022-08-12T17:21:17.488Z,100056.41
2022-08-12T17:23:53.357Z,100062.69
2022-08-12T17:26:27.970Z,100067.44
2022-08-12T17:28:59.279Z,100066.06
2022-08-12T17:32:00.300Z,100055.72
2022-08-12T17:34:33.378Z,100073.88
2022-08-12T17:37:04.990Z,100056.91
2022-08-12T17:40:12.384Z,100062.53
2022-08-12T17:42:32.675Z,100058.59
2022-08-12T17:45:18.230Z,100067.91
2022-08-12T17:48:01.390Z,100071.66
2022-08-12T17:50:32.320Z,100070.75
2022-08-12T17:53:03.598Z,100071.78
2022-08-12T17:55:43.177Z,100073.47
2022-08-12T17:58:17.486Z,100076.16
2022-08-12T18:00:47.465Z,100077.00
2022-08-12T18:04:05.146Z,100077.00
2022-08-12T18:06:14.137Z,100071.88
2022-08-12T18:08:54.311Z,100067.13
2022-08-12T18:12:04.643Z,100077.28
2022-08-12T18:14:30.661Z,100073.03
2022-08-12T18:17:02.422Z,100078.59
2022-08-12T18:20:03.688Z,100077.75
2022-08-12T18:22:21.766Z,100075.88
2022-08-12T18:25:00.876Z,100085.25
2022-08-12T18:27:44.427Z,100078.66
2022-08-12T18:30:20.424Z,100086.09
2022-08-12T18:33:03.957Z,100082.16
2022-08-12T18:35:53.129Z,100087.56
2022-08-12T18:38:24.444Z,100087.06
2022-08-12T18:41:21.452Z,100084.06
2022-08-12T18:43:59.377Z,100084.50
2022-08-12T18:46:35.789Z,100080.72
2022-08-12T18:49:17.980Z,100083.44
2022-08-12T18:51:55.086Z,100083.88
2022-08-12T18:54:26.797Z,100081.97
2022-08-12T18:56:59.343Z,100085.69
2022-08-12T19:00:02.301Z,100087.16
2022-08-12T19:02:22.385Z,100094.34
2022-08-12T19:04:53.893Z,100091.41
2022-08-12T19:07:24.837Z,100094.97
2022-08-12T19:10:00.038Z,100084.78
2022-08-12T19:12:56.873Z,100085.72
2022-08-12T19:15:27.414Z,100079.78
2022-08-12T19:18:02.866Z,100085.94
2022-08-12T19:20:32.883Z,100091.28
2022-08-12T19:23:08.025Z,100092.59
2022-08-12T19:26:00.387Z,100088.25
2022-08-12T19:28:35.523Z,100092.28
2022-08-12T19:31:55.290Z,100086.59
2022-08-12T19:37:27.273Z,100093.94
2022-08-12T19:40:07.913Z,100095.22
2022-08-12T19:42:42.754Z,100087.75
2022-08-12T19:45:15.743Z,100086.25
2022-08-12T19:47:46.752Z,100093.03
2022-08-12T19:50:19.930Z,100093.66
2022-08-12T19:52:51.279Z,100091.97
2022-08-12T19:55:21.956Z,100090.00
2022-08-12T19:58:02.636Z,100093.00
2022-08-12T20:00:35.307Z,100082.94
2022-08-12T20:03:05.379Z,100080.16
2022-08-12T20:06:05.803Z,100078.41
2022-08-12T20:08:33.195Z,100079.69
2022-08-12T20:12:09.875Z,100079.31
2022-08-12T20:14:00.421Z,100076.59
2022-08-12T20:16:57.152Z,100072.47
2022-08-12T20:19:52.717Z,100077.09
2022-08-12T20:22:24.495Z,100076.81
2022-08-12T20:25:00.879Z,100074.56
2022-08-12T20:28:03.197Z,100072.88
2022-08-12T20:30:37.620Z,100079.66
2022-08-12T20:33:17.585Z,100068.88
2022-08-12T20:36:13.288Z,100073.59
2022-08-12T20:38:38.385Z,100075.19
2022-08-12T20:41:16.295Z,100075.75
2022-08-12T20:43:52.143Z,100074.75
2022-08-12T20:46:20.854Z,100073.91
2022-08-12T20:48:54.434Z,100078.47
2022-08-12T20:51:27.572Z,100075.78
2022-08-12T20:53:58.731Z,100073.06
2022-08-12T20:56:34.494Z,100074.47
2022-08-12T20:59:06.003Z,100075.22
2022-08-12T21:01:46.609Z,100077.47
2022-08-12T21:04:36.993Z,100069.81
2022-08-12T21:07:09.371Z,100071.66
2022-08-12T21:09:42.723Z,100073.66
2022-08-12T21:12:31.117Z,100077.75
2022-08-12T21:15:23.235Z,100072.66
2022-08-12T21:18:11.717Z,100075.78
2022-08-12T21:20:54.744Z,100071.78
2022-08-12T21:23:23.684Z,100073.38
2022-08-12T21:25:52.669Z,100073.22
2022-08-12T21:28:27.426Z,100083.19
2022-08-12T21:32:34.846Z,100096.94
2022-08-12T21:33:45.864Z,100099.94
2022-08-12T21:36:35.531Z,100099.78
2022-08-12T21:39:18.740Z,100105.03
2022-08-12T21:41:50.237Z,100101.59
2022-08-12T21:44:24.025Z,100111.13
2022-08-12T21:47:20.150Z,100103.81
2022-08-12T21:50:02.425Z,100116.41
2022-08-12T21:52:35.774Z,100115.00
2022-08-12T21:55:08.474Z,100114.28
2022-08-12T21:57:50.450Z,100118.38
2022-08-12T22:00:20.828Z,100111.69
2022-08-12T22:03:06.179Z,100113.94
2022-08-12T22:05:53.430Z,100118.91
2022-08-12T22:08:25.423Z,100112.66
2022-08-12T22:10:56.372Z,100117.06
2022-08-12T22:14:07.746Z,100118.75
2022-08-12T22:16:15.403Z,100117.75
2022-08-12T22:18:50.189Z,100118.47
2022-08-12T22:21:22.132Z,100113.38
2022-08-12T22:24:05.091Z,100109.81
2022-08-12T22:26:37.446Z,100113.22
2022-08-12T22:29:23.069Z,100107.31
2022-08-12T22:31:54.624Z,100106.47
2022-08-12T22:34:29.253Z,100104.31
2022-08-12T22:36:58.323Z,100099.59
2022-08-12T22:39:28.025Z,100097.75
2022-08-12T22:42:19.990Z,100091.97
2022-08-12T22:45:05.553Z,100099.06
2022-08-12T22:47:54.166Z,100090.56
2022-08-12T22:50:27.622Z,100094.97
2022-08-12T22:53:15.068Z,100089.44
2022-08-12T22:55:59.618Z,100090.16
2022-08-12T22:58:40.140Z,100103.53
2022-08-12T23:01:10.819Z,100091.63
2022-08-12T23:03:48.087Z,100093.59
2022-08-12T23:06:20.069Z,100088.31
2022-08-12T23:08:48.908Z,100094.53
2022-08-12T23:11:23.322Z,100083.31
2022-08-12T23:13:56.042Z,100092.19
2022-08-12T23:16:31.918Z,100082.63
2022-08-12T23:19:10.806Z,100078.53
2022-08-12T23:22:05.526Z,100075.69
2022-08-12T23:24:53.862Z,100079.78
2022-08-12T23:27:52.132Z,100062.03
2022-08-12T23:30:31.299Z,100068.81
2022-08-12T23:33:01.452Z,100057.75
2022-08-12T23:35:46.022Z,100058.25
2022-08-12T23:38:30.368Z,100056.84
2022-08-12T23:40:59.998Z,100052.81
2022-08-12T23:43:38.929Z,100057.34
2022-08-12T23:46:10.610Z,100062.00
2022-08-12T23:48:39.982Z,100047.97
2022-08-12T23:51:22.300Z,100054.34
2022-08-12T23:53:55.008Z,100043.72
2022-08-12T23:56:24.782Z,100043.59
2022-08-12T23:58:55.344Z,100045.41
